sensor_id;sensor_type;location;lat;lon;timestamp;P1;durP1;ratioP1;P2;durP2;ratioP2
37805;SDS011;25082;50.870;0.022;2022-09-16T00:00:00;4.15;;;3.15;;
37805;SDS011;25082;50.870;0.022;2022-09-16T00:02:26;4.05;;;2.95;;
37805;SDS011;25082;50.870;0.022;2022-09-16T00:04:52;6.07;;;3.08;;
37805;SDS011;25082;50.870;0.022;2022-09-16T00:07:18;5.95;;;3.20;;
37805;SDS011;25082;50.870;0.022;2022-09-16T00:09:44;4.35;;;2.72;;
37805;SDS011;25082;50.870;0.022;2022-09-16T00:12:10;4.57;;;3.00;;
37805;SDS011;25082;50.870;0.022;2022-09-16T00:14:36;4.47;;;2.95;;
37805;SDS011;25082;50.870;0.022;2022-09-16T00:17:01;5.72;;;3.00;;
37805;SDS011;25082;50.870;0.022;2022-09-16T00:19:27;6.38;;;3.20;;
37805;SDS011;25082;50.870;0.022;2022-09-16T00:21:53;4.72;;;2.83;;
37805;SDS011;25082;50.870;0.022;2022-09-16T00:24:19;6.32;;;3.08;;
37805;SDS011;25082;50.870;0.022;2022-09-16T00:26:44;4.28;;;3.00;;
37805;SDS011;25082;50.870;0.022;2022-09-16T00:29:10;5.38;;;2.75;;
37805;SDS011;25082;50.870;0.022;2022-09-16T00:31:36;4.43;;;2.40;;
37805;SDS011;25082;50.870;0.022;2022-09-16T00:34:01;4.90;;;3.17;;
37805;SDS011;25082;50.870;0.022;2022-09-16T00:36:27;4.53;;;2.72;;
37805;SDS011;25082;50.870;0.022;2022-09-16T00:38:54;4.70;;;2.67;;
37805;SDS011;25082;50.870;0.022;2022-09-16T00:41:25;5.47;;;2.75;;
37805;SDS011;25082;50.870;0.022;2022-09-16T00:43:54;4.65;;;2.72;;
37805;SDS011;25082;50.870;0.022;2022-09-16T00:46:25;5.95;;;2.85;;
37805;SDS011;25082;50.870;0.022;2022-09-16T00:49:06;4.88;;;2.65;;
37805;SDS011;25082;50.870;0.022;2022-09-16T00:51:46;4.80;;;2.65;;
37805;SDS011;25082;50.870;0.022;2022-09-16T00:54:15;6.43;;;2.70;;
37805;SDS011;25082;50.870;0.022;2022-09-16T00:56:43;4.35;;;2.53;;
37805;SDS011;25082;50.870;0.022;2022-09-16T01:01:43;4.78;;;2.38;;
37805;SDS011;25082;50.870;0.022;2022-09-16T01:04:15;5.18;;;2.60;;
37805;SDS011;25082;50.870;0.022;2022-09-16T01:06:56;4.43;;;2.30;;
37805;SDS011;25082;50.870;0.022;2022-09-16T01:09:23;6.03;;;2.58;;
37805;SDS011;25082;50.870;0.022;2022-09-16T01:11:50;4.43;;;2.50;;
37805;SDS011;25082;50.870;0.022;2022-09-16T01:14:16;3.13;;;2.25;;
37805;SDS011;25082;50.870;0.022;2022-09-16T01:17:23;3.25;;;2.20;;
37805;SDS011;25082;50.870;0.022;2022-09-16T01:20:10;4.75;;;2.28;;
37805;SDS011;25082;50.870;0.022;2022-09-16T01:31:31;3.40;;;1.70;;
37805;SDS011;25082;50.870;0.022;2022-09-16T01:36:40;4.57;;;2.33;;
37805;SDS011;25082;50.870;0.022;2022-09-16T01:39:21;5.32;;;2.17;;
37805;SDS011;25082;50.870;0.022;2022-09-16T01:47:03;3.17;;;1.90;;
37805;SDS011;25082;50.870;0.022;2022-09-16T01:52:19;4.30;;;2.00;;
37805;SDS011;25082;50.870;0.022;2022-09-16T01:54:54;4.05;;;1.90;;
37805;SDS011;25082;50.870;0.022;2022-09-16T01:58:05;3.97;;;2.13;;
37805;SDS011;25082;50.870;0.022;2022-09-16T02:00:22;4.50;;;2.15;;
37805;SDS011;25082;50.870;0.022;2022-09-16T02:05:33;3.50;;;1.95;;
37805;SDS011;25082;50.870;0.022;2022-09-16T02:08:05;4.30;;;2.00;;
37805;SDS011;25082;50.870;0.022;2022-09-16T02:10:36;4.30;;;1.90;;
37805;SDS011;25082;50.870;0.022;2022-09-16T02:13:07;3.20;;;1.90;;
37805;SDS011;25082;50.870;0.022;2022-09-16T02:15:40;5.53;;;2.10;;
37805;SDS011;25082;50.870;0.022;2022-09-16T02:18:10;3.38;;;1.83;;
37805;SDS011;25082;50.870;0.022;2022-09-16T02:20:40;4.38;;;2.40;;
37805;SDS011;25082;50.870;0.022;2022-09-16T02:23:11;3.42;;;1.60;;
37805;SDS011;25082;50.870;0.022;2022-09-16T02:25:42;4.07;;;2.08;;
37805;SDS011;25082;50.870;0.022;2022-09-16T02:28:11;2.78;;;1.63;;
37805;SDS011;25082;50.870;0.022;2022-09-16T02:30:42;3.57;;;1.83;;
37805;SDS011;25082;50.870;0.022;2022-09-16T02:33:13;3.90;;;1.95;;
37805;SDS011;25082;50.870;0.022;2022-09-16T02:35:40;3.22;;;1.80;;
37805;SDS011;25082;50.870;0.022;2022-09-16T02:38:14;3.35;;;1.50;;
37805;SDS011;25082;50.870;0.022;2022-09-16T02:40:53;5.18;;;1.63;;
37805;SDS011;25082;50.870;0.022;2022-09-16T02:43:21;2.58;;;1.30;;
37805;SDS011;25082;50.870;0.022;2022-09-16T02:53:57;2.75;;;1.90;;
37805;SDS011;25082;50.870;0.022;2022-09-16T02:56:31;4.53;;;1.90;;
37805;SDS011;25082;50.870;0.022;2022-09-16T02:59:03;2.92;;;1.58;;
37805;SDS011;25082;50.870;0.022;2022-09-16T03:01:32;3.50;;;1.83;;
37805;SDS011;25082;50.870;0.022;2022-09-16T03:04:05;2.70;;;1.63;;
37805;SDS011;25082;50.870;0.022;2022-09-16T03:06:35;2.47;;;1.40;;
37805;SDS011;25082;50.870;0.022;2022-09-16T03:09:04;2.67;;;1.65;;
37805;SDS011;25082;50.870;0.022;2022-09-16T03:14:11;2.65;;;1.52;;
37805;SDS011;25082;50.870;0.022;2022-09-16T03:19:56;2.42;;;1.40;;
37805;SDS011;25082;50.870;0.022;2022-09-16T03:28:20;2.92;;;1.90;;
37805;SDS011;25082;50.870;0.022;2022-09-16T03:31:07;3.15;;;1.38;;
37805;SDS011;25082;50.870;0.022;2022-09-16T03:33:40;2.95;;;1.58;;
37805;SDS011;25082;50.870;0.022;2022-09-16T03:36:21;4.50;;;1.80;;
37805;SDS011;25082;50.870;0.022;2022-09-16T03:38:51;2.20;;;1.65;;
37805;SDS011;25082;50.870;0.022;2022-09-16T03:41:19;1.58;;;1.25;;
37805;SDS011;25082;50.870;0.022;2022-09-16T03:43:54;1.80;;;1.20;;
37805;SDS011;25082;50.870;0.022;2022-09-16T03:46:21;3.55;;;1.65;;
37805;SDS011;25082;50.870;0.022;2022-09-16T03:48:47;2.63;;;1.70;;
37805;SDS011;25082;50.870;0.022;2022-09-16T03:51:14;4.88;;;1.50;;
37805;SDS011;25082;50.870;0.022;2022-09-16T03:53:40;3.03;;;1.48;;
37805;SDS011;25082;50.870;0.022;2022-09-16T03:56:06;2.72;;;1.40;;
37805;SDS011;25082;50.870;0.022;2022-09-16T03:58:32;3.83;;;1.77;;
37805;SDS011;25082;50.870;0.022;2022-09-16T04:00:57;3.47;;;1.50;;
37805;SDS011;25082;50.870;0.022;2022-09-16T04:03:23;2.17;;;1.50;;
37805;SDS011;25082;50.870;0.022;2022-09-16T04:05:52;2.63;;;1.40;;
37805;SDS011;25082;50.870;0.022;2022-09-16T04:08:19;2.75;;;1.70;;
37805;SDS011;25082;50.870;0.022;2022-09-16T04:13:21;3.22;;;1.38;;
37805;SDS011;25082;50.870;0.022;2022-09-16T04:15:47;1.00;;;0.90;;
37805;SDS011;25082;50.870;0.022;2022-09-16T04:18:12;3.10;;;1.33;;
37805;SDS011;25082;50.870;0.022;2022-09-16T04:20:38;3.05;;;1.17;;
37805;SDS011;25082;50.870;0.022;2022-09-16T04:23:04;7.25;;;1.98;;
37805;SDS011;25082;50.870;0.022;2022-09-16T04:25:29;2.97;;;1.40;;
37805;SDS011;25082;50.870;0.022;2022-09-16T04:27:55;5.75;;;1.50;;
37805;SDS011;25082;50.870;0.022;2022-09-16T04:30:21;4.07;;;1.48;;
37805;SDS011;25082;50.870;0.022;2022-09-16T04:32:51;2.10;;;1.45;;
37805;SDS011;25082;50.870;0.022;2022-09-16T04:35:18;3.13;;;1.50;;
37805;SDS011;25082;50.870;0.022;2022-09-16T04:37:43;2.95;;;1.17;;
37805;SDS011;25082;50.870;0.022;2022-09-16T04:40:10;1.88;;;1.33;;
37805;SDS011;25082;50.870;0.022;2022-09-16T04:42:36;4.43;;;1.52;;
37805;SDS011;25082;50.870;0.022;2022-09-16T04:45:02;1.27;;;1.15;;
37805;SDS011;25082;50.870;0.022;2022-09-16T04:47:28;2.00;;;1.25;;
37805;SDS011;25082;50.870;0.022;2022-09-16T04:49:54;2.63;;;1.45;;
37805;SDS011;25082;50.870;0.022;2022-09-16T04:52:20;2.42;;;1.50;;
37805;SDS011;25082;50.870;0.022;2022-09-16T04:54:45;2.17;;;1.02;;
37805;SDS011;25082;50.870;0.022;2022-09-16T04:57:11;2.30;;;1.20;;
37805;SDS011;25082;50.870;0.022;2022-09-16T04:59:37;2.30;;;1.20;;
37805;SDS011;25082;50.870;0.022;2022-09-16T05:02:03;2.08;;;1.25;;
37805;SDS011;25082;50.870;0.022;2022-09-16T05:04:28;1.58;;;1.38;;
37805;SDS011;25082;50.870;0.022;2022-09-16T05:06:54;1.80;;;1.30;;
37805;SDS011;25082;50.870;0.022;2022-09-16T05:09:20;2.60;;;1.45;;
37805;SDS011;25082;50.870;0.022;2022-09-16T05:11:46;4.05;;;1.30;;
37805;SDS011;25082;50.870;0.022;2022-09-16T05:14:14;4.10;;;1.25;;
37805;SDS011;25082;50.870;0.022;2022-09-16T05:16:41;2.83;;;1.35;;
37805;SDS011;25082;50.870;0.022;2022-09-16T05:19:09;4.28;;;1.45;;
37805;SDS011;25082;50.870;0.022;2022-09-16T05:21:36;2.35;;;1.20;;
37805;SDS011;25082;50.870;0.022;2022-09-16T05:24:04;2.10;;;1.30;;
37805;SDS011;25082;50.870;0.022;2022-09-16T05:26:34;2.83;;;1.20;;
37805;SDS011;25082;50.870;0.022;2022-09-16T05:29:03;2.42;;;1.33;;
37805;SDS011;25082;50.870;0.022;2022-09-16T05:31:31;2.17;;;1.40;;
37805;SDS011;25082;50.870;0.022;2022-09-16T05:34:02;2.35;;;1.35;;
37805;SDS011;25082;50.870;0.022;2022-09-16T05:36:31;2.95;;;1.40;;
37805;SDS011;25082;50.870;0.022;2022-09-16T05:38:59;2.80;;;1.50;;
37805;SDS011;25082;50.870;0.022;2022-09-16T05:41:26;3.00;;;1.27;;
37805;SDS011;25082;50.870;0.022;2022-09-16T05:43:52;2.40;;;1.55;;
37805;SDS011;25082;50.870;0.022;2022-09-16T05:46:21;1.75;;;1.10;;
37805;SDS011;25082;50.870;0.022;2022-09-16T05:48:48;2.42;;;1.30;;
37805;SDS011;25082;50.870;0.022;2022-09-16T05:51:15;1.95;;;1.23;;
37805;SDS011;25082;50.870;0.022;2022-09-16T05:53:42;2.47;;;1.42;;
37805;SDS011;25082;50.870;0.022;2022-09-16T05:56:09;2.25;;;1.25;;
37805;SDS011;25082;50.870;0.022;2022-09-16T05:58:38;1.52;;;1.10;;
37805;SDS011;25082;50.870;0.022;2022-09-16T06:01:08;2.13;;;1.40;;
37805;SDS011;25082;50.870;0.022;2022-09-16T06:03:36;1.50;;;1.00;;
37805;SDS011;25082;50.870;0.022;2022-09-16T06:06:45;2.83;;;1.35;;
37805;SDS011;25082;50.870;0.022;2022-09-16T06:08:56;2.40;;;1.15;;
37805;SDS011;25082;50.870;0.022;2022-09-16T06:11:24;1.73;;;0.95;;
37805;SDS011;25082;50.870;0.022;2022-09-16T06:13:52;2.42;;;0.90;;
37805;SDS011;25082;50.870;0.022;2022-09-16T06:16:21;1.90;;;1.13;;
37805;SDS011;25082;50.870;0.022;2022-09-16T06:18:49;2.72;;;1.08;;
37805;SDS011;25082;50.870;0.022;2022-09-16T06:21:16;1.80;;;0.90;;
37805;SDS011;25082;50.870;0.022;2022-09-16T06:23:41;3.13;;;1.25;;
37805;SDS011;25082;50.870;0.022;2022-09-16T06:26:08;2.35;;;1.25;;
37805;SDS011;25082;50.870;0.022;2022-09-16T06:28:41;2.63;;;1.08;;
37805;SDS011;25082;50.870;0.022;2022-09-16T06:31:12;2.17;;;0.88;;
37805;SDS011;25082;50.870;0.022;2022-09-16T06:33:39;1.70;;;0.95;;
37805;SDS011;25082;50.870;0.022;2022-09-16T06:36:06;2.72;;;1.23;;
37805;SDS011;25082;50.870;0.022;2022-09-16T06:38:40;3.97;;;1.10;;
37805;SDS011;25082;50.870;0.022;2022-09-16T06:41:07;2.60;;;1.00;;
37805;SDS011;25082;50.870;0.022;2022-09-16T06:43:34;2.97;;;1.42;;
37805;SDS011;25082;50.870;0.022;2022-09-16T06:46:01;3.17;;;1.27;;
37805;SDS011;25082;50.870;0.022;2022-09-16T06:48:34;2.20;;;0.85;;
37805;SDS011;25082;50.870;0.022;2022-09-16T06:51:02;3.42;;;1.08;;
37805;SDS011;25082;50.870;0.022;2022-09-16T06:53:29;3.03;;;1.30;;
37805;SDS011;25082;50.870;0.022;2022-09-16T06:56:02;2.72;;;1.30;;
37805;SDS011;25082;50.870;0.022;2022-09-16T06:58:35;2.00;;;0.80;;
37805;SDS011;25082;50.870;0.022;2022-09-16T07:01:08;3.13;;;1.30;;
37805;SDS011;25082;50.870;0.022;2022-09-16T07:03:36;2.42;;;1.05;;
37805;SDS011;25082;50.870;0.022;2022-09-16T07:06:03;1.50;;;1.00;;
37805;SDS011;25082;50.870;0.022;2022-09-16T07:08:29;1.75;;;0.93;;
37805;SDS011;25082;50.870;0.022;2022-09-16T07:11:05;2.20;;;1.05;;
37805;SDS011;25082;50.870;0.022;2022-09-16T07:13:35;2.90;;;1.27;;
37805;SDS011;25082;50.870;0.022;2022-09-16T07:16:05;1.73;;;1.00;;
37805;SDS011;25082;50.870;0.022;2022-09-16T07:18:35;3.00;;;1.08;;
37805;SDS011;25082;50.870;0.022;2022-09-16T07:23:31;3.03;;;1.05;;
37805;SDS011;25082;50.870;0.022;2022-09-16T07:26:09;2.05;;;1.00;;
37805;SDS011;25082;50.870;0.022;2022-09-16T07:28:35;1.25;;;0.85;;
37805;SDS011;25082;50.870;0.022;2022-09-16T07:31:08;1.77;;;1.10;;
37805;SDS011;25082;50.870;0.022;2022-09-16T07:33:37;3.63;;;1.20;;
37805;SDS011;25082;50.870;0.022;2022-09-16T07:36:04;2.45;;;0.82;;
37805;SDS011;25082;50.870;0.022;2022-09-16T07:38:32;1.67;;;0.82;;
37805;SDS011;25082;50.870;0.022;2022-09-16T07:43:30;2.42;;;1.08;;
37805;SDS011;25082;50.870;0.022;2022-09-16T07:45:56;1.60;;;1.00;;
37805;SDS011;25082;50.870;0.022;2022-09-16T07:48:22;3.40;;;1.25;;
37805;SDS011;25082;50.870;0.022;2022-09-16T07:50:58;1.20;;;0.90;;
37805;SDS011;25082;50.870;0.022;2022-09-16T07:53:25;2.15;;;1.10;;
37805;SDS011;25082;50.870;0.022;2022-09-16T07:55:53;2.20;;;0.90;;
37805;SDS011;25082;50.870;0.022;2022-09-16T07:58:39;0.90;;;0.80;;
37805;SDS011;25082;50.870;0.022;2022-09-16T08:01:06;1.63;;;0.90;;
37805;SDS011;25082;50.870;0.022;2022-09-16T08:03:33;2.78;;;1.05;;
37805;SDS011;25082;50.870;0.022;2022-09-16T08:06:00;0.95;;;0.85;;
37805;SDS011;25082;50.870;0.022;2022-09-16T08:08:28;2.22;;;1.00;;
37805;SDS011;25082;50.870;0.022;2022-09-16T08:10:55;1.42;;;0.90;;
37805;SDS011;25082;50.870;0.022;2022-09-16T08:13:22;2.05;;;1.00;;
37805;SDS011;25082;50.870;0.022;2022-09-16T08:15:48;2.40;;;1.00;;
37805;SDS011;25082;50.870;0.022;2022-09-16T08:18:14;1.90;;;0.82;;
37805;SDS011;25082;50.870;0.022;2022-09-16T08:20:40;2.13;;;1.02;;
37805;SDS011;25082;50.870;0.022;2022-09-16T08:23:05;1.58;;;0.95;;
37805;SDS011;25082;50.870;0.022;2022-09-16T08:25:31;2.03;;;1.10;;
37805;SDS011;25082;50.870;0.022;2022-09-16T08:27:57;2.08;;;1.00;;
37805;SDS011;25082;50.870;0.022;2022-09-16T08:30:23;2.05;;;1.35;;
37805;SDS011;25082;50.870;0.022;2022-09-16T08:32:57;1.92;;;0.90;;
37805;SDS011;25082;50.870;0.022;2022-09-16T08:35:24;1.58;;;0.88;;
37805;SDS011;25082;50.870;0.022;2022-09-16T08:37:51;4.47;;;1.20;;
37805;SDS011;25082;50.870;0.022;2022-09-16T08:40:18;1.58;;;0.68;;
37805;SDS011;25082;50.870;0.022;2022-09-16T08:51:11;2.80;;;1.20;;
37805;SDS011;25082;50.870;0.022;2022-09-16T08:56:14;1.25;;;0.88;;
37805;SDS011;25082;50.870;0.022;2022-09-16T08:58:44;1.58;;;0.80;;
37805;SDS011;25082;50.870;0.022;2022-09-16T09:04:11;1.50;;;0.93;;
37805;SDS011;25082;50.870;0.022;2022-09-16T09:12:14;2.45;;;1.10;;
37805;SDS011;25082;50.870;0.022;2022-09-16T09:15:04;1.05;;;0.77;;
37805;SDS011;25082;50.870;0.022;2022-09-16T09:26:21;3.95;;;1.00;;
37805;SDS011;25082;50.870;0.022;2022-09-16T09:31:42;1.73;;;1.05;;
37805;SDS011;25082;50.870;0.022;2022-09-16T09:40:31;1.23;;;0.63;;
37805;SDS011;25082;50.870;0.022;2022-09-16T09:42:38;1.92;;;1.00;;
37805;SDS011;25082;50.870;0.022;2022-09-16T09:48:36;2.70;;;1.05;;
37805;SDS011;25082;50.870;0.022;2022-09-16T09:55:37;1.95;;;0.88;;
37805;SDS011;25082;50.870;0.022;2022-09-16T10:00:42;1.95;;;1.02;;
37805;SDS011;25082;50.870;0.022;2022-09-16T10:03:12;3.60;;;1.30;;
37805;SDS011;25082;50.870;0.022;2022-09-16T10:05:41;3.47;;;1.20;;
37805;SDS011;25082;50.870;0.022;2022-09-16T10:10:40;2.03;;;1.08;;
37805;SDS011;25082;50.870;0.022;2022-09-16T10:13:12;1.00;;;0.70;;
37805;SDS011;25082;50.870;0.022;2022-09-16T10:15:39;1.23;;;0.80;;
37805;SDS011;25082;50.870;0.022;2022-09-16T10:18:13;3.60;;;1.00;;
37805;SDS011;25082;50.870;0.022;2022-09-16T10:20:54;2.63;;;1.05;;
37805;SDS011;25082;50.870;0.022;2022-09-16T10:23:23;1.67;;;0.90;;
37805;SDS011;25082;50.870;0.022;2022-09-16T10:26:01;2.33;;;0.85;;
37805;SDS011;25082;50.870;0.022;2022-09-16T10:28:29;1.85;;;0.90;;
37805;SDS011;25082;50.870;0.022;2022-09-16T10:30:55;1.88;;;1.00;;
37805;SDS011;25082;50.870;0.022;2022-09-16T10:35:55;1.30;;;0.90;;
37805;SDS011;25082;50.870;0.022;2022-09-16T10:38:32;3.60;;;0.90;;
37805;SDS011;25082;50.870;0.022;2022-09-16T10:41:08;1.67;;;1.00;;
37805;SDS011;25082;50.870;0.022;2022-09-16T10:43:45;2.22;;;1.13;;
37805;SDS011;25082;50.870;0.022;2022-09-16T10:46:16;2.28;;;1.17;;
37805;SDS011;25082;50.870;0.022;2022-09-16T10:48:44;1.23;;;0.70;;
37805;SDS011;25082;50.870;0.022;2022-09-16T10:51:27;1.88;;;0.88;;
37805;SDS011;25082;50.870;0.022;2022-09-16T10:53:55;2.35;;;1.00;;
37805;SDS011;25082;50.870;0.022;2022-09-16T10:56:23;2.00;;;0.80;;
37805;SDS011;25082;50.870;0.022;2022-09-16T11:21:18;3.22;;;1.00;;
37805;SDS011;25082;50.870;0.022;2022-09-16T11:29:19;2.42;;;0.88;;
37805;SDS011;25082;50.870;0.022;2022-09-16T11:32:12;1.30;;;0.85;;
37805;SDS011;25082;50.870;0.022;2022-09-16T11:34:55;1.13;;;0.80;;
37805;SDS011;25082;50.870;0.022;2022-09-16T11:37:44;1.50;;;0.88;;
37805;SDS011;25082;50.870;0.022;2022-09-16T11:46:13;1.85;;;0.77;;
37805;SDS011;25082;50.870;0.022;2022-09-16T11:49:16;1.38;;;0.68;;
37805;SDS011;25082;50.870;0.022;2022-09-16T11:57:30;2.50;;;1.00;;
37805;SDS011;25082;50.870;0.022;2022-09-16T12:00:09;2.38;;;0.70;;
37805;SDS011;25082;50.870;0.022;2022-09-16T12:05:47;2.05;;;0.82;;
37805;SDS011;25082;50.870;0.022;2022-09-16T12:10:48;5.30;;;0.85;;
37805;SDS011;25082;50.870;0.022;2022-09-16T12:16:10;2.83;;;0.98;;
37805;SDS011;25082;50.870;0.022;2022-09-16T12:18:40;1.27;;;0.68;;
37805;SDS011;25082;50.870;0.022;2022-09-16T12:23:58;1.92;;;1.00;;
37805;SDS011;25082;50.870;0.022;2022-09-16T12:26:40;1.20;;;0.70;;
37805;SDS011;25082;50.870;0.022;2022-09-16T12:34:51;1.70;;;1.00;;
37805;SDS011;25082;50.870;0.022;2022-09-16T12:39:51;0.95;;;0.60;;
37805;SDS011;25082;50.870;0.022;2022-09-16T12:42:26;2.38;;;0.80;;
37805;SDS011;25082;50.870;0.022;2022-09-16T12:50:58;2.08;;;1.00;;
37805;SDS011;25082;50.870;0.022;2022-09-16T12:53:53;2.35;;;0.90;;
37805;SDS011;25082;50.870;0.022;2022-09-16T12:56:32;1.48;;;0.95;;
37805;SDS011;25082;50.870;0.022;2022-09-16T13:01:57;3.00;;;1.10;;
37805;SDS011;25082;50.870;0.022;2022-09-16T13:04:32;1.95;;;0.70;;
37805;SDS011;25082;50.870;0.022;2022-09-16T13:07:03;1.98;;;0.90;;
37805;SDS011;25082;50.870;0.022;2022-09-16T13:09:30;1.80;;;0.77;;
37805;SDS011;25082;50.870;0.022;2022-09-16T13:12:16;1.38;;;0.98;;
37805;SDS011;25082;50.870;0.022;2022-09-16T13:14:51;0.60;;;0.60;;
37805;SDS011;25082;50.870;0.022;2022-09-16T13:19:52;2.63;;;0.98;;
37805;SDS011;25082;50.870;0.022;2022-09-16T13:24:52;1.25;;;0.85;;
37805;SDS011;25082;50.870;0.022;2022-09-16T13:27:24;1.05;;;0.90;;
37805;SDS011;25082;50.870;0.022;2022-09-16T13:30:14;1.45;;;0.70;;
37805;SDS011;25082;50.870;0.022;2022-09-16T13:37:45;1.02;;;0.88;;
37805;SDS011;25082;50.870;0.022;2022-09-16T13:40:50;1.08;;;0.60;;
37805;SDS011;25082;50.870;0.022;2022-09-16T13:45:34;1.90;;;0.80;;
37805;SDS011;25082;50.870;0.022;2022-09-16T13:48:13;0.93;;;0.65;;
37805;SDS011;25082;50.870;0.022;2022-09-16T13:50:56;1.30;;;0.82;;
37805;SDS011;25082;50.870;0.022;2022-09-16T14:01:58;2.42;;;1.10;;
37805;SDS011;25082;50.870;0.022;2022-09-16T14:15:22;2.13;;;0.98;;
37805;SDS011;25082;50.870;0.022;2022-09-16T14:17:50;3.85;;;1.08;;
37805;SDS011;25082;50.870;0.022;2022-09-16T14:20:20;2.75;;;1.00;;
37805;SDS011;25082;50.870;0.022;2022-09-16T14:22:58;0.90;;;0.63;;
37805;SDS011;25082;50.870;0.022;2022-09-16T14:30:58;4.20;;;0.80;;
37805;SDS011;25082;50.870;0.022;2022-09-16T14:36:08;0.77;;;0.60;;
37805;SDS011;25082;50.870;0.022;2022-09-16T14:38:43;1.20;;;0.77;;
37805;SDS011;25082;50.870;0.022;2022-09-16T14:41:23;2.63;;;1.00;;
37805;SDS011;25082;50.870;0.022;2022-09-16T14:43:57;1.38;;;0.75;;
37805;SDS011;25082;50.870;0.022;2022-09-16T14:46:57;1.13;;;0.80;;
37805;SDS011;25082;50.870;0.022;2022-09-16T14:49:34;0.63;;;0.60;;
37805;SDS011;25082;50.870;0.022;2022-09-16T14:52:01;2.97;;;0.90;;
37805;SDS011;25082;50.870;0.022;2022-09-16T14:54:28;1.88;;;0.68;;
37805;SDS011;25082;50.870;0.022;2022-09-16T14:59:39;1.17;;;0.77;;
37805;SDS011;25082;50.870;0.022;2022-09-16T15:02:14;2.35;;;0.68;;
37805;SDS011;25082;50.870;0.022;2022-09-16T15:04:58;1.88;;;0.77;;
37805;SDS011;25082;50.870;0.022;2022-09-16T15:07:36;1.45;;;0.75;;
37805;SDS011;25082;50.870;0.022;2022-09-16T15:10:05;1.55;;;0.98;;
37805;SDS011;25082;50.870;0.022;2022-09-16T15:12:53;1.58;;;0.80;;
37805;SDS011;25082;50.870;0.022;2022-09-16T15:15:30;1.02;;;0.70;;
37805;SDS011;25082;50.870;0.022;2022-09-16T15:18:06;2.40;;;0.80;;
37805;SDS011;25082;50.870;0.022;2022-09-16T15:20:47;0.60;;;0.60;;
37805;SDS011;25082;50.870;0.022;2022-09-16T15:23:22;0.95;;;0.60;;
37805;SDS011;25082;50.870;0.022;2022-09-16T15:25:50;0.85;;;0.50;;
37805;SDS011;25082;50.870;0.022;2022-09-16T15:28:21;2.80;;;0.90;;
37805;SDS011;25082;50.870;0.022;2022-09-16T15:30:48;0.80;;;0.63;;
37805;SDS011;25082;50.870;0.022;2022-09-16T15:33:22;0.98;;;0.47;;
37805;SDS011;25082;50.870;0.022;2022-09-16T15:35:59;2.10;;;0.60;;
37805;SDS011;25082;50.870;0.022;2022-09-16T15:38:26;1.48;;;0.80;;
37805;SDS011;25082;50.870;0.022;2022-09-16T15:41:02;2.13;;;0.50;;
37805;SDS011;25082;50.870;0.022;2022-09-16T15:43:38;0.55;;;0.47;;
37805;SDS011;25082;50.870;0.022;2022-09-16T15:48:46;0.85;;;0.50;;
37805;SDS011;25082;50.870;0.022;2022-09-16T15:51:23;1.20;;;0.70;;
37805;SDS011;25082;50.870;0.022;2022-09-16T15:53:56;1.58;;;0.65;;
37805;SDS011;25082;50.870;0.022;2022-09-16T15:59:33;1.05;;;0.70;;
37805;SDS011;25082;50.870;0.022;2022-09-16T16:04:51;1.42;;;0.80;;
37805;SDS011;25082;50.870;0.022;2022-09-16T16:08:00;2.90;;;0.57;;
37805;SDS011;25082;50.870;0.022;2022-09-16T16:10:12;0.50;;;0.40;;
37805;SDS011;25082;50.870;0.022;2022-09-16T16:12:43;1.17;;;0.75;;
37805;SDS011;25082;50.870;0.022;2022-09-16T16:15:16;1.48;;;0.68;;
37805;SDS011;25082;50.870;0.022;2022-09-16T16:17:44;1.20;;;0.60;;
37805;SDS011;25082;50.870;0.022;2022-09-16T16:20:11;1.30;;;0.40;;
37805;SDS011;25082;50.870;0.022;2022-09-16T16:22:39;0.90;;;0.73;;
37805;SDS011;25082;50.870;0.022;2022-09-16T16:25:05;0.80;;;0.40;;
37805;SDS011;25082;50.870;0.022;2022-09-16T16:27:31;0.60;;;0.47;;
37805;SDS011;25082;50.870;0.022;2022-09-16T16:29:58;0.63;;;0.52;;
37805;SDS011;25082;50.870;0.022;2022-09-16T16:32:23;0.50;;;0.50;;
37805;SDS011;25082;50.870;0.022;2022-09-16T16:34:49;2.13;;;0.75;;
37805;SDS011;25082;50.870;0.022;2022-09-16T16:37:16;0.80;;;0.60;;
37805;SDS011;25082;50.870;0.022;2022-09-16T16:39:43;0.80;;;0.50;;
37805;SDS011;25082;50.870;0.022;2022-09-16T16:42:12;1.35;;;0.60;;
37805;SDS011;25082;50.870;0.022;2022-09-16T16:44:39;1.58;;;0.70;;
37805;SDS011;25082;50.870;0.022;2022-09-16T16:47:05;0.90;;;0.60;;
37805;SDS011;25082;50.870;0.022;2022-09-16T16:49:32;1.17;;;0.60;;
37805;SDS011;25082;50.870;0.022;2022-09-16T16:51:58;0.70;;;0.50;;
37805;SDS011;25082;50.870;0.022;2022-09-16T16:54:25;1.23;;;0.60;;
37805;SDS011;25082;50.870;0.022;2022-09-16T16:56:52;0.85;;;0.60;;
37805;SDS011;25082;50.870;0.022;2022-09-16T16:59:18;0.60;;;0.60;;
37805;SDS011;25082;50.870;0.022;2022-09-16T17:01:45;2.17;;;0.90;;
37805;SDS011;25082;50.870;0.022;2022-09-16T17:04:12;0.47;;;0.47;;
37805;SDS011;25082;50.870;0.022;2022-09-16T17:06:38;1.15;;;0.60;;
37805;SDS011;25082;50.870;0.022;2022-09-16T17:09:04;0.50;;;0.43;;
37805;SDS011;25082;50.870;0.022;2022-09-16T17:11:32;1.00;;;0.90;;
37805;SDS011;25082;50.870;0.022;2022-09-16T17:14:02;0.47;;;0.40;;
37805;SDS011;25082;50.870;0.022;2022-09-16T17:16:29;0.90;;;0.70;;
37805;SDS011;25082;50.870;0.022;2022-09-16T17:18:57;1.15;;;0.70;;
37805;SDS011;25082;50.870;0.022;2022-09-16T17:21:27;0.98;;;0.50;;
37805;SDS011;25082;50.870;0.022;2022-09-16T17:23:55;0.68;;;0.52;;
37805;SDS011;25082;50.870;0.022;2022-09-16T17:26:21;1.35;;;0.70;;
37805;SDS011;25082;50.870;0.022;2022-09-16T17:28:48;1.67;;;0.85;;
37805;SDS011;25082;50.870;0.022;2022-09-16T17:31:19;0.75;;;0.50;;
37805;SDS011;25082;50.870;0.022;2022-09-16T17:33:48;1.00;;;0.47;;
37805;SDS011;25082;50.870;0.022;2022-09-16T17:36:17;1.27;;;0.47;;
37805;SDS011;25082;50.870;0.022;2022-09-16T17:38:45;1.23;;;0.60;;
37805;SDS011;25082;50.870;0.022;2022-09-16T17:41:11;1.05;;;0.50;;
37805;SDS011;25082;50.870;0.022;2022-09-16T17:43:39;1.45;;;0.60;;
37805;SDS011;25082;50.870;0.022;2022-09-16T17:46:07;1.65;;;0.60;;
37805;SDS011;25082;50.870;0.022;2022-09-16T17:48:37;0.98;;;0.60;;
37805;SDS011;25082;50.870;0.022;2022-09-16T17:51:03;0.40;;;0.40;;
37805;SDS011;25082;50.870;0.022;2022-09-16T17:53:30;2.05;;;0.57;;
37805;SDS011;25082;50.870;0.022;2022-09-16T17:56:04;0.82;;;0.50;;
37805;SDS011;25082;50.870;0.022;2022-09-16T17:58:31;0.85;;;0.50;;
37805;SDS011;25082;50.870;0.022;2022-09-16T18:01:05;0.80;;;0.80;;
37805;SDS011;25082;50.870;0.022;2022-09-16T18:03:32;1.85;;;0.63;;
37805;SDS011;25082;50.870;0.022;2022-09-16T18:06:04;0.60;;;0.50;;
37805;SDS011;25082;50.870;0.022;2022-09-16T18:08:37;2.65;;;0.70;;
37805;SDS011;25082;50.870;0.022;2022-09-16T18:11:04;0.63;;;0.50;;
37805;SDS011;25082;50.870;0.022;2022-09-16T18:13:31;1.30;;;0.38;;
37805;SDS011;25082;50.870;0.022;2022-09-16T18:16:16;0.88;;;0.30;;
37805;SDS011;25082;50.870;0.022;2022-09-16T18:18:43;2.25;;;0.60;;
37805;SDS011;25082;50.870;0.022;2022-09-16T18:21:11;1.20;;;0.70;;
37805;SDS011;25082;50.870;0.022;2022-09-16T18:23:39;0.93;;;0.60;;
37805;SDS011;25082;50.870;0.022;2022-09-16T18:26:12;4.22;;;0.60;;
37805;SDS011;25082;50.870;0.022;2022-09-16T18:28:40;3.08;;;0.70;;
37805;SDS011;25082;50.870;0.022;2022-09-16T18:31:08;0.98;;;0.63;;
37805;SDS011;25082;50.870;0.022;2022-09-16T18:33:36;1.15;;;0.50;;
37805;SDS011;25082;50.870;0.022;2022-09-16T18:36:04;0.73;;;0.50;;
37805;SDS011;25082;50.870;0.022;2022-09-16T18:38:31;1.00;;;0.47;;
37805;SDS011;25082;50.870;0.022;2022-09-16T18:41:17;1.50;;;0.70;;
37805;SDS011;25082;50.870;0.022;2022-09-16T18:43:45;1.48;;;0.60;;
37805;SDS011;25082;50.870;0.022;2022-09-16T18:46:16;0.80;;;0.43;;
37805;SDS011;25082;50.870;0.022;2022-09-16T18:48:47;0.65;;;0.50;;
37805;SDS011;25082;50.870;0.022;2022-09-16T18:51:14;1.05;;;0.47;;